METAR Data
IDs: Format: Raw Decoded Include TAF

Data at: 2038 UTC 21 Sep 2021

VTCC 212030Z 00000KT 9999 FEW015 BKN035 24/23 Q1008 NOSIG